Time;durP1;ratioP1;P1;durP2;ratioP2;P2;SDS_P1;SDS_P2;PMS_P1;PMS_P2;Temp;Humidity;BMP_temperature;BMP_pressure;BME280_temperature;BME280_humidity;BME280_pressure;Samples;Min_cycle;Max_cycle;Signal;HPM_P1;HPM_P2
2022/02/18 00:02:07;;;;;;;21.25;4.22;;;10.80;64.60;;;;;;5093988;28;20020;-79
2022/02/18 00:04:33;;;;;;;19.15;4.03;;;10.80;64.30;;;;;;5092358;28;20119;-78
2022/02/18 00:07:00;;;;;;;21.90;3.63;;;10.90;64.70;;;;;;5073316;28;20111;-77
2022/02/18 00:09:26;;;;;;;16.88;3.70;;;10.90;64.80;;;;;;5073436;28;20028;-78
2022/02/18 00:11:52;;;;;;;15.57;2.72;;;10.90;63.90;;;;;;5055604;28;20027;-78
2022/02/18 00:14:18;;;;;;;17.85;3.72;;;10.90;63.90;;;;;;5073487;28;20448;-78
2022/02/18 00:16:45;;;;;;;11.65;2.60;;;11.00;64.20;;;;;;5090085;28;20036;-78
2022/02/18 00:19:11;;;;;;;16.70;3.20;;;11.00;63.70;;;;;;5075229;28;20425;-78
2022/02/18 00:21:36;;;;;;;18.48;3.28;;;11.00;63.90;;;;;;5071978;28;20025;-79
2022/02/18 00:24:03;;;;;;;15.80;2.92;;;11.10;64.00;;;;;;5073482;28;20029;-78
2022/02/18 00:26:28;;;;;;;14.07;2.97;;;11.10;63.60;;;;;;5073812;28;20068;-79
2022/02/18 00:28:54;;;;;;;11.57;2.38;;;11.10;63.50;;;;;;5072933;28;20052;-78
2022/02/18 00:31:20;;;;;;;14.32;2.90;;;11.10;64.10;;;;;;5054919;28;20445;-78
2022/02/18 00:33:46;;;;;;;14.55;3.60;;;11.10;64.20;;;;;;5081419;28;20035;-78
2022/02/18 00:36:11;;;;;;;17.92;3.53;;;11.10;63.30;;;;;;5081119;28;20036;-78
2022/02/18 00:38:38;;;;;;;17.77;3.25;;;11.10;63.20;;;;;;5073702;28;20032;-78
2022/02/18 00:41:06;;;;;;;12.23;3.53;;;11.10;62.00;;;;;;5093466;28;20154;-78
2022/02/18 00:43:32;;;;;;;17.50;2.88;;;11.10;62.50;;;;;;5078194;28;20088;-78
2022/02/18 00:45:58;;;;;;;12.48;3.22;;;11.20;62.20;;;;;;5078852;28;20028;-78
2022/02/18 00:48:23;;;;;;;16.77;3.35;;;11.20;62.10;;;;;;5074739;28;20027;-78
2022/02/18 00:50:49;;;;;;;17.30;3.05;;;11.20;62.50;;;;;;5092950;28;20024;-79
2022/02/18 00:53:15;;;;;;;13.43;2.95;;;11.20;62.30;;;;;;5093192;28;20025;-79
2022/02/18 00:55:41;;;;;;;13.25;2.50;;;11.20;62.50;;;;;;5085996;28;20039;-78
2022/02/18 00:58:07;;;;;;;15.38;3.47;;;11.20;61.80;;;;;;5054786;28;20438;-79
2022/02/18 01:00:32;;;;;;;15.80;2.83;;;11.20;61.30;;;;;;5055011;28;20024;-79
2022/02/18 01:02:58;;;;;;;14.80;2.97;;;11.20;61.90;;;;;;5054936;28;20472;-78
2022/02/18 01:05:24;;;;;;;15.88;2.95;;;11.20;62.10;;;;;;5072732;28;20043;-79
2022/02/18 01:07:50;;;;;;;14.75;3.35;;;11.10;60.70;;;;;;5072909;28;20024;-79
2022/02/18 01:10:16;;;;;;;12.48;2.95;;;11.20;61.00;;;;;;5072838;28;20035;-78
2022/02/18 01:12:42;;;;;;;11.43;2.30;;;11.20;61.60;;;;;;5054900;28;20024;-78
2022/02/18 01:15:09;;;;;;;17.27;2.92;;;11.20;61.60;;;;;;5072790;28;20377;-79
2022/02/18 01:17:35;;;;;;;16.95;3.58;;;11.20;61.00;;;;;;5072361;28;20047;-79
2022/02/18 01:20:01;;;;;;;16.38;3.00;;;11.20;60.20;;;;;;5091768;28;20024;-79
2022/02/18 01:22:27;;;;;;;14.40;3.13;;;11.20;59.60;;;;;;5080613;28;20028;-79
2022/02/18 01:24:53;;;;;;;11.02;2.80;;;11.30;59.80;;;;;;5073001;28;20036;-79
2022/02/18 01:27:18;;;;;;;15.70;3.05;;;11.30;59.50;;;;;;5074247;28;20032;-79
2022/02/18 01:29:44;;;;;;;16.33;2.42;;;11.30;59.80;;;;;;5092660;28;20105;-79
2022/02/18 01:32:11;;;;;;;17.23;3.05;;;11.30;59.10;;;;;;5076193;28;20463;-79
2022/02/18 01:34:38;;;;;;;11.48;3.08;;;11.30;59.50;;;;;;5096170;28;20131;-80
2022/02/18 01:37:04;;;;;;;14.55;2.70;;;11.30;59.30;;;;;;5077222;28;20068;-79
2022/02/18 01:39:30;;;;;;;17.88;3.33;;;11.30;59.40;;;;;;5078500;28;20020;-80
2022/02/18 01:41:57;;;;;;;21.95;3.70;;;11.30;59.50;;;;;;5078426;28;20024;-79
2022/02/18 01:44:43;;;;;;;14.02;2.65;;;11.30;58.60;;;;;;5078154;28;20059;-79
2022/02/18 01:47:16;;;;;;;19.75;2.97;;;11.30;58.90;;;;;;5065927;28;20036;-79
2022/02/18 01:49:45;;;;;;;9.30;2.20;;;11.30;58.40;;;;;;5079653;28;20020;-80
2022/02/18 01:52:11;;;;;;;12.48;3.25;;;11.30;58.70;;;;;;5076160;28;20027;-80
2022/02/18 01:54:37;;;;;;;13.68;2.92;;;11.30;58.80;;;;;;5087197;28;20024;-80
2022/02/18 01:57:03;;;;;;;12.73;2.67;;;11.30;58.70;;;;;;5055159;28;20033;-80
2022/02/18 01:59:29;;;;;;;15.95;3.50;;;11.30;59.50;;;;;;5085603;28;20060;-80
2022/02/18 02:01:58;;;;;;;15.48;3.33;;;11.30;58.80;;;;;;5078082;28;20530;-80
2022/02/18 02:04:25;;;;;;;15.98;2.45;;;11.20;57.90;;;;;;5077912;28;20415;-80
2022/02/18 02:06:52;;;;;;;17.33;3.15;;;11.20;58.40;;;;;;5081041;28;20033;-80
2022/02/18 02:09:18;;;;;;;17.15;3.28;;;11.30;58.80;;;;;;5075514;28;20039;-80
2022/02/18 02:11:44;;;;;;;11.85;2.35;;;11.20;58.00;;;;;;5075602;28;20033;-80
2022/02/18 02:14:10;;;;;;;15.55;3.13;;;11.20;58.30;;;;;;5057766;28;20031;-80
2022/02/18 02:16:36;;;;;;;19.40;3.53;;;11.20;58.50;;;;;;5075868;28;20037;-79
2022/02/18 02:19:02;;;;;;;17.35;3.22;;;11.20;58.10;;;;;;5057581;28;20024;-80
2022/02/18 02:21:28;;;;;;;15.95;3.17;;;11.20;58.30;;;;;;5057587;28;20035;-80
2022/02/18 02:23:55;;;;;;;12.15;3.17;;;11.20;57.90;;;;;;5075423;28;20425;-80
2022/02/18 02:26:21;;;;;;;14.68;2.95;;;11.20;58.40;;;;;;5085450;28;20070;-80
2022/02/18 02:28:47;;;;;;;17.02;3.58;;;11.20;58.80;;;;;;5075454;28;20028;-81
2022/02/18 02:31:13;;;;;;;13.00;3.03;;;11.10;59.00;;;;;;5057335;28;20199;-80
2022/02/18 02:33:39;;;;;;;11.10;2.85;;;11.10;58.80;;;;;;5057046;28;20111;-81
2022/02/18 02:36:05;;;;;;;16.33;2.95;;;11.10;59.00;;;;;;5068974;28;20036;-81
2022/02/18 02:38:30;;;;;;;13.95;2.60;;;11.00;58.90;;;;;;5095192;28;20035;-79
2022/02/18 02:40:56;;;;;;;12.15;2.80;;;11.00;59.10;;;;;;5094242;28;20686;-80
2022/02/18 02:43:22;;;;;;;12.25;2.38;;;11.00;59.30;;;;;;5094113;28;20024;-80
2022/02/18 02:45:48;;;;;;;13.82;3.03;;;10.90;59.30;;;;;;5089945;28;20104;-79
2022/02/18 02:48:14;;;;;;;15.25;3.10;;;10.90;59.40;;;;;;5067020;28;20055;-80
2022/02/18 02:50:40;;;;;;;18.45;3.83;;;10.90;59.00;;;;;;5094003;28;20421;-80
2022/02/18 02:53:06;;;;;;;16.58;3.70;;;10.80;59.00;;;;;;5082532;28;20077;-80
2022/02/18 02:55:32;;;;;;;13.05;3.10;;;10.80;59.30;;;;;;5089551;28;20039;-80
2022/02/18 02:57:57;;;;;;;12.60;2.95;;;10.80;59.00;;;;;;5094894;28;20024;-80
2022/02/18 03:00:23;;;;;;;11.68;3.17;;;10.80;59.10;;;;;;5094917;28;20031;-81
2022/02/18 03:02:49;;;;;;;14.05;3.10;;;10.80;59.40;;;;;;5094447;28;20021;-80
2022/02/18 03:05:15;;;;;;;12.70;2.92;;;10.80;59.60;;;;;;5093566;28;20024;-81
2022/02/18 03:07:41;;;;;;;15.75;3.33;;;10.80;59.90;;;;;;5077557;28;20135;-81
2022/02/18 03:10:08;;;;;;;11.15;2.58;;;10.80;60.10;;;;;;5074707;28;20025;-80
2022/02/18 03:12:34;;;;;;;11.52;2.08;;;10.80;60.20;;;;;;5074625;28;20062;-81
2022/02/18 03:15:00;;;;;;;18.85;4.13;;;10.80;60.30;;;;;;5074512;28;20467;-80
2022/02/18 03:17:27;;;;;;;18.52;4.03;;;10.80;59.70;;;;;;5074480;28;20036;-79
2022/02/18 03:19:53;;;;;;;18.63;3.50;;;10.80;59.40;;;;;;5071728;28;20119;-80
2022/02/18 03:22:19;;;;;;;16.65;3.80;;;10.80;59.50;;;;;;5093559;28;20107;-80
2022/02/18 03:24:45;;;;;;;19.63;3.80;;;10.80;59.50;;;;;;5093561;28;20139;-80
2022/02/18 03:27:11;;;;;;;14.20;3.28;;;10.80;59.40;;;;;;5094504;28;20028;-79
2022/02/18 03:29:38;;;;;;;16.25;3.45;;;10.80;59.60;;;;;;5093244;28;20020;-80
2022/02/18 03:32:04;;;;;;;12.30;3.03;;;10.80;59.60;;;;;;5077358;28;20037;-80
2022/02/18 03:34:31;;;;;;;16.17;4.03;;;10.80;59.30;;;;;;5093621;28;20105;-80
2022/02/18 03:36:58;;;;;;;25.13;5.10;;;10.80;59.40;;;;;;5094137;28;20028;-80
2022/02/18 03:39:24;;;;;;;14.63;3.67;;;10.80;59.20;;;;;;5076141;28;20036;-80
2022/02/18 03:41:50;;;;;;;20.38;3.85;;;10.80;59.40;;;;;;5094351;28;20431;-80
2022/02/18 03:44:16;;;;;;;16.67;3.50;;;10.80;59.20;;;;;;5075681;28;20028;-80
2022/02/18 03:46:41;;;;;;;11.30;2.78;;;10.80;59.20;;;;;;5093547;28;20040;-80
2022/02/18 03:49:07;;;;;;;16.73;3.90;;;10.80;59.40;;;;;;5072329;28;20029;-81
2022/02/18 03:51:33;;;;;;;19.05;3.13;;;10.80;59.40;;;;;;5073598;28;20020;-80
2022/02/18 03:53:59;;;;;;;20.33;3.40;;;10.80;59.20;;;;;;5073360;28;20457;-81
2022/02/18 03:56:24;;;;;;;13.73;3.15;;;10.80;59.10;;;;;;5061924;28;20067;-80
2022/02/18 03:58:50;;;;;;;11.80;2.80;;;10.80;59.30;;;;;;5073478;28;20447;-81
2022/02/18 04:01:16;;;;;;;11.32;2.70;;;10.80;59.70;;;;;;5055614;28;20024;-81
2022/02/18 04:03:43;;;;;;;8.52;1.88;;;10.80;60.00;;;;;;5072943;28;20040;-81
2022/02/18 04:06:10;;;;;;;14.57;2.85;;;10.80;61.30;;;;;;5073050;28;20100;-81
2022/02/18 04:08:35;;;;;;;10.35;2.75;;;10.70;60.70;;;;;;5065260;28;20028;-81
2022/02/18 04:11:01;;;;;;;11.65;2.97;;;10.70;61.00;;;;;;5071627;28;20024;-82
2022/02/18 04:13:27;;;;;;;9.75;2.08;;;10.70;61.00;;;;;;5089448;28;20119;-82
2022/02/18 04:15:53;;;;;;;16.88;2.83;;;10.70;61.20;;;;;;5088793;28;20024;-81
2022/02/18 04:18:19;;;;;;;10.73;2.88;;;10.60;61.40;;;;;;5094096;28;20035;-82
2022/02/18 04:20:45;;;;;;;13.90;3.22;;;10.60;61.30;;;;;;5071585;28;20052;-82
2022/02/18 04:23:10;;;;;;;10.75;2.47;;;10.60;61.20;;;;;;5090450;28;20028;-82
2022/02/18 04:25:36;;;;;;;17.67;3.78;;;10.60;61.70;;;;;;5072220;28;20084;-82
2022/02/18 04:28:05;;;;;;;13.27;2.67;;;10.50;61.90;;;;;;5075227;28;20090;-82
2022/02/18 04:30:32;;;;;;;13.18;2.67;;;10.50;62.00;;;;;;5075425;28;20081;-81
2022/02/18 04:32:58;;;;;;;9.48;3.10;;;10.50;62.00;;;;;;5073799;28;20115;-81
2022/02/18 04:35:27;;;;;;;13.50;2.70;;;10.50;62.30;;;;;;5093035;28;20048;-82
2022/02/18 04:37:53;;;;;;;12.65;2.35;;;10.50;62.20;;;;;;5075072;28;20036;-82
2022/02/18 04:40:19;;;;;;;9.63;2.92;;;10.50;62.10;;;;;;5075409;28;20020;-82
2022/02/18 04:42:46;;;;;;;15.90;3.95;;;10.50;62.20;;;;;;5082470;28;20059;-81
2022/02/18 04:45:15;;;;;;;15.65;3.05;;;10.50;62.30;;;;;;5073037;28;20032;-81
2022/02/18 04:47:42;;;;;;;11.07;2.72;;;10.40;62.40;;;;;;5073011;28;20036;-82
2022/02/18 04:50:08;;;;;;;12.45;2.90;;;10.40;62.50;;;;;;5055209;28;20465;-81
2022/02/18 04:52:34;;;;;;;16.00;3.22;;;10.50;62.50;;;;;;5073413;28;20500;-81
2022/02/18 04:55:01;;;;;;;8.32;2.38;;;10.50;62.80;;;;;;5054844;28;20384;-81
2022/02/18 04:57:28;;;;;;;10.55;2.97;;;10.50;63.00;;;;;;5072964;28;20036;-82
2022/02/18 04:59:54;;;;;;;14.10;4.25;;;10.50;63.20;;;;;;5055084;28;20460;-81
2022/02/18 05:02:20;;;;;;;21.60;4.15;;;10.50;63.30;;;;;;5054850;28;20028;-80
2022/02/18 05:04:46;;;;;;;18.00;3.80;;;10.60;63.40;;;;;;5072460;28;20027;-81
2022/02/18 05:07:12;;;;;;;14.10;3.80;;;10.60;63.40;;;;;;5074978;28;20025;-80
2022/02/18 05:09:38;;;;;;;12.95;2.78;;;10.60;63.30;;;;;;5075793;28;20062;-80
2022/02/18 05:12:04;;;;;;;16.55;3.63;;;10.60;63.30;;;;;;5077044;28;20067;-80
2022/02/18 05:14:30;;;;;;;15.90;3.80;;;10.60;63.00;;;;;;5058717;28;20035;-80
2022/02/18 05:16:56;;;;;;;16.35;3.78;;;10.60;62.80;;;;;;5076973;28;20032;-80
2022/02/18 05:19:21;;;;;;;13.57;3.30;;;10.60;62.90;;;;;;5076561;28;20047;-81
2022/02/18 05:21:47;;;;;;;13.93;2.75;;;10.60;63.10;;;;;;5076775;28;20107;-81
2022/02/18 05:24:13;;;;;;;13.88;3.08;;;10.60;63.20;;;;;;5058762;28;20029;-81
2022/02/18 05:26:39;;;;;;;19.38;3.00;;;10.60;63.20;;;;;;5076495;28;20029;-81
2022/02/18 05:29:05;;;;;;;12.15;4.00;;;10.60;63.10;;;;;;5058708;28;20083;-81
2022/02/18 05:31:31;;;;;;;12.90;4.22;;;10.50;63.20;;;;;;5068825;28;20052;-81
2022/02/18 05:33:57;;;;;;;11.32;4.03;;;10.50;63.10;;;;;;5076464;28;20101;-80
2022/02/18 05:36:22;;;;;;;11.82;3.50;;;10.40;63.00;;;;;;5076165;28;20067;-81
2022/02/18 05:38:48;;;;;;;18.50;4.20;;;10.40;63.00;;;;;;5076527;28;20064;-81
2022/02/18 05:41:14;;;;;;;12.35;3.63;;;10.40;63.00;;;;;;5058423;28;20036;-81
2022/02/18 05:43:41;;;;;;;16.52;4.05;;;10.40;63.20;;;;;;5076364;28;20029;-81
2022/02/18 05:46:07;;;;;;;13.77;3.85;;;10.30;63.30;;;;;;5075378;28;20043;-81
2022/02/18 05:48:33;;;;;;;14.35;3.88;;;10.30;63.50;;;;;;5076626;28;20032;-81
2022/02/18 05:51:01;;;;;;;12.70;2.85;;;10.30;63.90;;;;;;5058329;28;20068;-81
2022/02/18 05:53:27;;;;;;;18.58;3.35;;;10.30;64.00;;;;;;5076454;28;20021;-81
2022/02/18 05:55:53;;;;;;;23.55;4.40;;;10.30;64.20;;;;;;5074832;28;20032;-82
2022/02/18 05:58:19;;;;;;;12.48;2.72;;;10.30;64.20;;;;;;5075384;28;20025;-81
2022/02/18 06:00:45;;;;;;;10.25;2.95;;;10.40;64.40;;;;;;5058110;28;20120;-81
2022/02/18 06:03:11;;;;;;;12.43;3.13;;;10.40;64.60;;;;;;5057659;28;20124;-81
2022/02/18 06:05:37;;;;;;;12.07;3.47;;;10.40;64.70;;;;;;5076022;28;20021;-82
2022/02/18 06:08:03;;;;;;;17.48;3.80;;;10.40;64.60;;;;;;5058057;28;20098;-82
2022/02/18 06:10:29;;;;;;;11.63;2.97;;;10.50;64.60;;;;;;5068760;28;20039;-82
2022/02/18 06:12:55;;;;;;;11.15;2.63;;;10.50;64.50;;;;;;5075589;28;20032;-82
2022/02/18 06:15:21;;;;;;;10.73;3.00;;;10.50;64.50;;;;;;5075986;28;20025;-81
2022/02/18 06:17:47;;;;;;;20.33;3.30;;;10.50;64.50;;;;;;5075254;28;20025;-82
2022/02/18 06:20:13;;;;;;;10.27;2.90;;;10.50;64.60;;;;;;5075768;28;20025;-82
2022/02/18 06:22:39;;;;;;;20.17;4.38;;;10.50;64.60;;;;;;5059294;28;20036;-82
2022/02/18 06:25:06;;;;;;;16.58;4.07;;;10.50;63.90;;;;;;5057405;28;20036;-82
2022/02/18 06:27:32;;;;;;;11.65;2.67;;;10.50;63.70;;;;;;5057768;28;20043;-82
2022/02/18 06:29:58;;;;;;;14.20;3.30;;;10.50;63.90;;;;;;5074395;28;20020;-82
2022/02/18 06:32:24;;;;;;;14.73;3.95;;;10.40;63.60;;;;;;5095435;28;20035;-82
2022/02/18 06:34:52;;;;;;;12.77;3.58;;;10.50;63.20;;;;;;5071625;28;20078;-82
2022/02/18 06:37:18;;;;;;;14.02;3.33;;;10.40;63.10;;;;;;5077667;28;20036;-82
2022/02/18 06:39:44;;;;;;;16.63;3.83;;;10.40;63.20;;;;;;5057493;28;20571;-83
2022/02/18 06:42:10;;;;;;;19.15;4.00;;;10.40;63.00;;;;;;5075434;28;20021;-82
2022/02/18 06:44:36;;;;;;;17.35;3.70;;;10.40;62.90;;;;;;5075513;28;20024;-83
2022/02/18 06:47:03;;;;;;;12.98;3.55;;;10.40;62.60;;;;;;5061303;28;20039;-83
2022/02/18 06:49:32;;;;;;;18.15;3.80;;;10.30;62.50;;;;;;5095126;28;20470;-83
2022/02/18 06:51:58;;;;;;;16.90;3.97;;;10.30;62.50;;;;;;5095415;28;20047;-82
2022/02/18 06:54:25;;;;;;;20.95;4.25;;;10.30;62.70;;;;;;5095140;28;20059;-83
2022/02/18 06:56:51;;;;;;;16.35;4.00;;;10.30;62.80;;;;;;5077032;28;20083;-83
2022/02/18 06:59:18;;;;;;;17.48;3.13;;;10.30;62.70;;;;;;5094204;28;20107;-84
2022/02/18 07:01:54;;;;;;;17.92;4.13;;;10.30;63.10;;;;;;5074994;28;20103;-83
2022/02/18 07:04:24;;;;;;;15.90;4.15;;;10.40;63.00;;;;;;5057417;28;20025;-83
2022/02/18 07:06:54;;;;;;;14.88;3.28;;;10.40;62.80;;;;;;5057147;28;20036;-84
2022/02/18 07:09:20;;;;;;;17.02;3.85;;;10.50;63.10;;;;;;5057366;28;20024;-84
2022/02/18 07:11:46;;;;;;;14.32;3.05;;;10.60;63.20;;;;;;5075155;28;20024;-85
2022/02/18 07:14:12;;;;;;;10.93;3.08;;;10.60;63.10;;;;;;5047772;28;20055;-84
2022/02/18 07:16:41;;;;;;;21.90;3.58;;;10.60;62.90;;;;;;5075123;28;20054;-85
2022/02/18 07:19:19;;;;;;;23.92;3.63;;;10.70;63.80;;;;;;5057204;28;20054;-85
2022/02/18 07:21:47;;;;;;;16.35;4.07;;;10.70;62.80;;;;;;5057225;28;20028;-83
2022/02/18 07:24:15;;;;;;;19.92;3.75;;;10.80;63.10;;;;;;5057244;28;20020;-85
2022/02/18 07:26:41;;;;;;;17.40;3.35;;;10.90;63.00;;;;;;5072330;28;20033;-85
2022/02/18 07:29:07;;;;;;;12.48;3.03;;;11.00;62.80;;;;;;5064485;28;20035;-84
2022/02/18 07:31:33;;;;;;;14.75;3.63;;;11.00;62.90;;;;;;5074165;28;20063;-85
2022/02/18 07:34:05;;;;;;;17.15;5.03;;;11.10;63.20;;;;;;5075105;28;20095;-86
2022/02/18 07:36:31;;;;;;;18.02;5.20;;;11.10;62.80;;;;;;5075172;28;20453;-86
2022/02/18 07:38:57;;;;;;;17.65;5.20;;;11.20;62.70;;;;;;5074033;28;20028;-86
2022/02/18 07:41:23;;;;;;;16.52;4.35;;;11.30;63.20;;;;;;5057286;28;20536;-86
2022/02/18 07:43:51;;;;;;;22.40;4.13;;;11.40;63.10;;;;;;5074815;28;20025;-86
2022/02/18 07:46:17;;;;;;;13.75;3.63;;;11.50;62.90;;;;;;5056858;28;20036;-87
2022/02/18 07:48:43;;;;;;;11.40;3.08;;;11.50;62.60;;;;;;5056690;28;20067;-87
2022/02/18 07:51:09;;;;;;;15.02;4.53;;;11.60;62.10;;;;;;5074535;28;20029;-86
2022/02/18 07:53:35;;;;;;;19.05;4.25;;;11.70;61.60;;;;;;5056763;28;20035;-86
2022/02/18 07:56:01;;;;;;;13.05;4.30;;;11.70;61.70;;;;;;5057082;28;20024;-87
2022/02/18 07:58:27;;;;;;;15.05;3.35;;;11.80;62.20;;;;;;5075054;28;20025;-87
2022/02/18 08:00:53;;;;;;;12.35;2.80;;;11.80;62.60;;;;;;5057233;28;20025;-88
2022/02/18 08:03:19;;;;;;;10.68;3.15;;;11.90;62.40;;;;;;5059228;28;20055;-88
2022/02/18 08:05:45;;;;;;;17.42;3.70;;;12.00;62.40;;;;;;5075643;28;20047;-86
2022/02/18 08:08:11;;;;;;;9.07;2.65;;;12.10;62.30;;;;;;5076376;28;20048;-87
2022/02/18 08:10:37;;;;;;;15.60;3.25;;;12.20;62.40;;;;;;5076005;28;20478;-85
2022/02/18 08:13:03;;;;;;;18.05;3.80;;;12.30;62.60;;;;;;5075584;28;20109;-89
2022/02/18 08:15:28;;;;;;;23.48;4.75;;;12.40;61.40;;;;;;5071657;28;20032;-89
2022/02/18 08:17:54;;;;;;;27.55;4.28;;;12.40;60.70;;;;;;5073631;28;20044;-88
2022/02/18 08:20:21;;;;;;;20.23;3.28;;;12.50;60.00;;;;;;5072983;28;20025;-88
2022/02/18 08:22:47;;;;;;;20.58;4.53;;;12.50;59.50;;;;;;5057085;28;20024;-84
2022/02/18 08:25:12;;;;;;;19.17;3.60;;;12.40;59.90;;;;;;5058273;28;20032;-85
2022/02/18 08:27:38;;;;;;;10.50;3.17;;;12.40;59.50;;;;;;5074399;28;20098;-85
2022/02/18 08:30:06;;;;;;;12.52;3.17;;;12.40;59.70;;;;;;5091689;28;20396;-85
2022/02/18 08:32:33;;;;;;;16.20;3.50;;;12.40;60.00;;;;;;5093778;28;20031;-80
2022/02/18 08:34:59;;;;;;;11.73;3.47;;;12.40;60.00;;;;;;5057946;28;20045;-82
2022/02/18 08:37:25;;;;;;;10.23;2.83;;;12.30;59.90;;;;;;5035468;28;20029;-83
2022/02/18 08:39:51;;;;;;;10.38;3.22;;;12.30;60.40;;;;;;5036063;28;20047;-83
2022/02/18 08:42:17;;;;;;;11.55;3.33;;;12.20;60.60;;;;;;5039501;28;20028;-82
2022/02/18 08:44:43;;;;;;;14.10;3.30;;;12.20;61.10;;;;;;5045703;28;20029;-83
2022/02/18 08:47:09;;;;;;;21.95;4.13;;;12.20;61.60;;;;;;5044692;28;20029;-84
2022/02/18 08:49:37;;;;;;;13.40;3.10;;;12.30;61.50;;;;;;5053328;28;20029;-83
2022/02/18 08:52:03;;;;;;;18.33;3.50;;;12.30;60.90;;;;;;5043062;28;20024;-84
2022/02/18 08:54:29;;;;;;;12.48;3.38;;;12.30;60.90;;;;;;5055610;28;20522;-83
2022/02/18 08:56:54;;;;;;;8.40;2.78;;;12.40;61.30;;;;;;5055605;28;20113;-83
2022/02/18 08:59:20;;;;;;;16.92;3.58;;;12.40;62.20;;;;;;5072318;28;20024;-82
2022/02/18 09:01:47;;;;;;;11.07;3.33;;;12.50;61.20;;;;;;5073442;28;20096;-83
2022/02/18 09:04:13;;;;;;;11.10;2.88;;;12.50;61.20;;;;;;5065859;28;20025;-81
2022/02/18 09:06:39;;;;;;;16.60;3.15;;;12.60;61.60;;;;;;5065733;28;20047;-81
2022/02/18 09:09:05;;;;;;;9.77;2.67;;;12.70;61.60;;;;;;5043862;28;20025;-83
2022/02/18 09:11:31;;;;;;;12.00;2.90;;;12.70;62.30;;;;;;5071792;28;20506;-83
2022/02/18 09:13:57;;;;;;;25.55;3.83;;;12.90;62.80;;;;;;5060857;28;20025;-83
2022/02/18 09:16:23;;;;;;;12.25;3.22;;;13.00;63.20;;;;;;5066289;28;20032;-83
2022/02/18 09:18:50;;;;;;;11.00;2.90;;;13.20;63.40;;;;;;5052735;28;20025;-82
2022/02/18 09:21:16;;;;;;;16.27;4.18;;;13.50;63.50;;;;;;5038304;28;20056;-83
2022/02/18 09:23:42;;;;;;;9.90;2.50;;;13.70;62.20;;;;;;5054891;28;20032;-83
2022/02/18 09:26:07;;;;;;;12.90;2.83;;;13.90;62.60;;;;;;5064136;28;20054;-82
2022/02/18 09:28:33;;;;;;;12.48;2.88;;;14.10;61.80;;;;;;5069097;28;20480;-83
2022/02/18 09:30:59;;;;;;;19.35;3.22;;;14.30;60.90;;;;;;5048975;28;20028;-83
2022/02/18 09:33:26;;;;;;;15.43;2.92;;;14.40;59.90;;;;;;5064588;28;20499;-83
2022/02/18 09:35:52;;;;;;;12.52;2.78;;;14.60;59.90;;;;;;5077081;28;20051;-83
2022/02/18 09:38:18;;;;;;;17.95;3.60;;;14.80;60.30;;;;;;5086225;28;20025;-82
2022/02/18 09:40:45;;;;;;;16.40;3.40;;;14.90;60.70;;;;;;5072229;28;20035;-83
2022/02/18 09:43:11;;;;;;;12.57;2.40;;;15.10;60.20;;;;;;5073001;28;20028;-83
2022/02/18 09:45:37;;;;;;;13.48;3.13;;;15.20;59.50;;;;;;5054652;28;20025;-82
2022/02/18 09:48:03;;;;;;;10.93;3.05;;;15.30;59.20;;;;;;5054697;28;20043;-82
2022/02/18 09:50:30;;;;;;;10.77;3.22;;;15.50;58.50;;;;;;5072118;28;20090;-82
2022/02/18 09:52:56;;;;;;;14.20;3.13;;;15.60;59.30;;;;;;5055718;28;20444;-82
2022/02/18 09:55:22;;;;;;;15.35;3.17;;;15.60;57.80;;;;;;5057932;28;20029;-82
2022/02/18 09:57:56;;;;;;;14.90;3.10;;;15.80;58.30;;;;;;5062682;28;20074;-82
2022/02/18 10:00:22;;;;;;;10.60;2.75;;;15.90;57.30;;;;;;5072199;28;20028;-82
2022/02/18 10:02:48;;;;;;;13.02;3.30;;;16.10;57.90;;;;;;5076935;28;20028;-82
2022/02/18 10:05:15;;;;;;;13.48;3.10;;;16.20;57.80;;;;;;5079690;28;20038;-82
2022/02/18 10:08:17;;;;;;;10.93;2.92;;;16.30;57.80;;;;;;5067950;28;20085;-82
2022/02/18 10:10:58;;;;;;;12.73;3.15;;;16.50;57.70;;;;;;5076110;28;20024;-81
2022/02/18 10:13:33;;;;;;;10.57;2.50;;;16.60;57.70;;;;;;5059710;28;20024;-83
2022/02/18 10:16:00;;;;;;;11.45;3.03;;;16.80;58.50;;;;;;5063814;28;20033;-82
2022/02/18 10:18:27;;;;;;;17.88;2.92;;;16.90;58.10;;;;;;5075919;28;20028;-82
2022/02/18 10:20:54;;;;;;;17.10;2.75;;;17.00;57.90;;;;;;5066502;28;20023;-81
2022/02/18 10:23:22;;;;;;;13.13;3.08;;;17.00;56.30;;;;;;5087386;28;20021;-80
2022/02/18 10:25:52;;;;;;;13.65;3.13;;;17.20;56.00;;;;;;5057764;28;20032;-80
2022/02/18 10:28:19;;;;;;;13.35;3.08;;;17.20;53.50;;;;;;5075955;28;20512;-78
2022/02/18 10:30:46;;;;;;;17.40;3.20;;;17.20;54.10;;;;;;5075430;28;20499;-79
2022/02/18 10:33:17;;;;;;;13.70;2.75;;;17.30;53.60;;;;;;5073997;28;20115;-79
2022/02/18 10:35:45;;;;;;;12.52;2.65;;;17.30;52.20;;;;;;5076619;28;20488;-78
2022/02/18 10:38:11;;;;;;;18.80;3.65;;;17.30;53.20;;;;;;5057489;28;20017;-79
2022/02/18 10:40:48;;;;;;;18.25;3.45;;;17.30;51.30;;;;;;5057482;28;20468;-76
2022/02/18 10:43:18;;;;;;;10.35;2.65;;;17.20;50.00;;;;;;5075383;28;20103;-75
2022/02/18 10:45:51;;;;;;;11.82;2.70;;;17.20;50.30;;;;;;5075311;28;20415;-74
2022/02/18 10:48:20;;;;;;;12.60;2.65;;;17.00;50.10;;;;;;5057255;28;20533;-74
2022/02/18 10:51:09;;;;;;;10.60;2.92;;;17.00;49.80;;;;;;5075190;28;20029;-73
2022/02/18 10:53:43;;;;;;;14.75;4.38;;;16.80;49.60;;;;;;5057197;28;20024;-73
2022/02/18 10:56:12;;;;;;;14.77;3.22;;;16.80;50.10;;;;;;5075149;28;20020;-73
2022/02/18 10:58:51;;;;;;;9.75;2.60;;;16.80;49.80;;;;;;5075022;28;20029;-73
2022/02/18 11:01:19;;;;;;;14.23;3.20;;;16.80;50.70;;;;;;5057072;28;20025;-72
2022/02/18 11:03:47;;;;;;;10.93;2.65;;;16.80;50.90;;;;;;5055955;28;20070;-72
2022/02/18 11:06:20;;;;;;;12.20;2.50;;;16.80;50.50;;;;;;5056308;28;20032;-72
2022/02/18 11:08:59;;;;;;;12.30;3.00;;;16.80;50.70;;;;;;5074775;28;20411;-73
2022/02/18 11:11:45;;;;;;;14.90;2.92;;;16.80;50.90;;;;;;5074816;28;20028;-72
2022/02/18 11:14:14;;;;;;;14.25;2.65;;;16.80;51.80;;;;;;5074587;28;20040;-72
2022/02/18 11:16:46;;;;;;;15.63;3.10;;;16.90;52.30;;;;;;5074275;28;20028;-72
2022/02/18 11:19:12;;;;;;;15.63;3.45;;;17.00;51.80;;;;;;5074296;28;20029;-72
2022/02/18 11:21:38;;;;;;;13.48;2.90;;;17.00;51.80;;;;;;5050458;28;20029;-72
2022/02/18 11:24:07;;;;;;;16.23;2.92;;;17.10;51.40;;;;;;5054050;28;20036;-72
2022/02/18 11:26:33;;;;;;;11.30;2.92;;;17.10;51.70;;;;;;5036452;28;20388;-72
2022/02/18 11:28:59;;;;;;;10.82;2.55;;;17.10;51.70;;;;;;5054380;28;20029;-72
2022/02/18 11:31:41;;;;;;;8.20;2.42;;;17.20;52.60;;;;;;5054353;28;20029;-72
2022/02/18 11:34:29;;;;;;;9.63;2.33;;;17.30;53.50;;;;;;5041159;28;20128;-73
2022/02/18 11:37:13;;;;;;;10.40;2.50;;;17.40;51.30;;;;;;5055735;28;20495;-72
2022/02/18 11:40:13;;;;;;;14.90;3.05;;;17.50;53.20;;;;;;5055983;28;20068;-72
2022/02/18 11:43:00;;;;;;;11.80;2.53;;;17.60;52.80;;;;;;5073980;28;20038;-72
2022/02/18 11:45:26;;;;;;;9.80;2.25;;;17.80;54.10;;;;;;5074201;28;20124;-72
2022/02/18 11:47:52;;;;;;;15.32;2.80;;;17.90;54.40;;;;;;5073196;28;20024;-72
2022/02/18 11:50:25;;;;;;;13.70;3.00;;;18.10;52.80;;;;;;5067435;28;20028;-73
2022/02/18 11:52:52;;;;;;;9.43;2.40;;;18.10;51.10;;;;;;5093670;28;20036;-73
2022/02/18 11:55:35;;;;;;;8.80;2.63;;;18.20;52.10;;;;;;5075146;28;20035;-73
2022/02/18 11:58:04;;;;;;;11.40;2.35;;;18.20;52.00;;;;;;5075707;28;20024;-72
2022/02/18 12:00:40;;;;;;;12.52;2.60;;;18.30;51.90;;;;;;5064871;28;20110;-73
2022/02/18 12:03:23;;;;;;;11.05;2.58;;;18.30;51.00;;;;;;5074032;28;20106;-74
2022/02/18 12:06:07;;;;;;;12.85;3.00;;;18.30;51.70;;;;;;5073559;28;20028;-73
2022/02/18 12:08:35;;;;;;;8.20;2.20;;;18.30;52.10;;;;;;5073892;28;20111;-73
2022/02/18 12:11:08;;;;;;;12.27;2.30;;;18.40;51.70;;;;;;5073641;28;20785;-72
2022/02/18 12:13:51;;;;;;;9.88;2.38;;;18.40;52.10;;;;;;5055396;28;20377;-73
2022/02/18 12:16:18;;;;;;;15.73;3.33;;;18.40;52.30;;;;;;5055081;28;20418;-72
2022/02/18 12:19:13;;;;;;;7.63;2.28;;;18.40;52.60;;;;;;5073406;28;20036;-72
2022/02/18 12:21:58;;;;;;;9.55;2.25;;;18.40;51.40;;;;;;5072847;28;20447;-72
2022/02/18 12:24:47;;;;;;;16.42;2.63;;;18.40;52.20;;;;;;5055276;28;20115;-72
2022/02/18 12:27:42;;;;;;;10.10;2.47;;;18.40;52.00;;;;;;5073248;28;20039;-73
2022/02/18 12:30:23;;;;;;;10.50;3.35;;;18.40;52.00;;;;;;5073062;28;20028;-72
2022/02/18 12:32:58;;;;;;;12.77;2.95;;;18.40;50.80;;;;;;5055280;28;20042;-72
2022/02/18 12:35:28;;;;;;;9.90;2.15;;;18.40;50.80;;;;;;5072992;28;20043;-72
2022/02/18 12:37:58;;;;;;;7.00;2.13;;;18.30;51.10;;;;;;5073006;28;20471;-73
2022/02/18 12:40:24;;;;;;;11.95;2.80;;;18.40;52.80;;;;;;5055295;28;20383;-73
2022/02/18 12:42:58;;;;;;;5.90;1.75;;;18.30;52.80;;;;;;5073323;28;20031;-73